createdAt,value
2018-12-26T00:01:16.777Z,97.19
2018-12-26T00:03:48.313Z,97.21
2018-12-26T00:06:19.122Z,97.63
2018-12-26T00:08:49.880Z,98.28
2018-12-26T00:11:20.840Z,98.10
2018-12-26T00:13:51.892Z,97.38
2018-12-26T00:16:22.911Z,97.83
2018-12-26T00:18:53.897Z,97.14
2018-12-26T00:21:25.415Z,97.07
2018-12-26T00:23:56.586Z,97.45
2018-12-26T00:26:27.758Z,97.84
2018-12-26T00:28:58.797Z,97.46
2018-12-26T00:31:29.780Z,97.12
2018-12-26T00:34:00.541Z,96.82
2018-12-26T00:36:31.757Z,96.66
2018-12-26T00:39:02.890Z,96.64
2018-12-26T00:41:34.165Z,97.11
2018-12-26T00:44:05.059Z,97.01
2018-12-26T00:46:36.101Z,96.71
2018-12-26T00:49:07.220Z,97.07
2018-12-26T00:51:38.660Z,97.69
2018-12-26T00:54:09.676Z,97.32
2018-12-26T00:56:40.643Z,97.42
2018-12-26T00:59:11.881Z,97.25
2018-12-26T01:01:43.593Z,97.31
2018-12-26T01:04:15.020Z,96.97
2018-12-26T01:06:46.594Z,97.31
2018-12-26T01:09:17.820Z,97.11
2018-12-26T01:11:48.573Z,96.96
2018-12-26T01:14:19.705Z,96.79
2018-12-26T01:16:50.844Z,96.97
2018-12-26T01:19:21.853Z,96.86
2018-12-26T01:21:53.164Z,97.28
2018-12-26T01:24:24.808Z,96.70
2018-12-26T01:26:55.804Z,96.58
2018-12-26T01:29:26.821Z,96.52
2018-12-26T01:31:58.645Z,97.16
2018-12-26T01:34:29.717Z,96.76
2018-12-26T01:37:00.559Z,97.39
2018-12-26T01:39:31.661Z,97.23
2018-12-26T01:42:02.962Z,97.02
2018-12-26T01:44:33.769Z,96.82
2018-12-26T01:47:04.849Z,97.21
2018-12-26T01:49:36.058Z,97.50
2018-12-26T01:52:07.068Z,97.87
2018-12-26T01:54:37.934Z,98.29
2018-12-26T01:57:08.775Z,98.35
2018-12-26T01:59:40.100Z,98.75
2018-12-26T02:02:11.418Z,98.66
2018-12-26T02:04:42.207Z,98.41
2018-12-26T02:07:13.534Z,98.01
2018-12-26T02:09:44.651Z,97.44
2018-12-26T02:12:15.476Z,97.03
2018-12-26T02:14:46.597Z,97.16
2018-12-26T02:17:17.871Z,97.16
2018-12-26T02:19:48.903Z,97.63
2018-12-26T02:22:19.914Z,97.52
2018-12-26T02:24:50.998Z,97.32
2018-12-26T02:27:22.074Z,97.52
2018-12-26T02:29:53.228Z,97.73
2018-12-26T02:32:24.385Z,97.87
2018-12-26T02:34:55.477Z,97.71
2018-12-26T02:37:46.954Z,96.73
2018-12-26T02:40:18.635Z,96.27
2018-12-26T02:42:49.416Z,96.22
2018-12-26T02:45:20.698Z,95.91
2018-12-26T02:47:52.078Z,95.65
2018-12-26T02:50:23.114Z,96.42
2018-12-26T02:55:44.528Z,97.19
2018-12-26T02:58:15.591Z,96.99
2018-12-26T03:00:46.651Z,97.45
2018-12-26T03:09:58.310Z,98.05
2018-12-26T03:15:31.530Z,98.40
2018-12-26T03:18:02.903Z,98.37
2018-12-26T03:20:34.256Z,98.72
2018-12-26T03:23:05.274Z,98.56
2018-12-26T03:25:36.305Z,98.85
2018-12-26T03:28:07.398Z,98.39
2018-12-26T03:30:38.876Z,98.22
2018-12-26T03:33:10.133Z,98.30
2018-12-26T03:35:41.675Z,97.87
2018-12-26T03:38:12.510Z,97.21
2018-12-26T03:40:43.681Z,97.71
2018-12-26T03:43:15.039Z,98.04
2018-12-26T03:45:46.215Z,97.74
2018-12-26T03:48:18.072Z,97.71
2018-12-26T03:50:49.021Z,98.11
2018-12-26T03:53:20.720Z,98.67
2018-12-26T03:55:51.687Z,98.55
2018-12-26T03:58:22.857Z,98.62
2018-12-26T04:00:54.331Z,98.08
2018-12-26T04:03:25.201Z,98.10
2018-12-26T04:05:56.227Z,98.51
2018-12-26T04:08:27.352Z,98.71
2018-12-26T04:10:58.219Z,98.90
2018-12-26T04:13:29.705Z,98.67
2018-12-26T04:16:00.878Z,98.50
2018-12-26T04:18:32.257Z,98.53
2018-12-26T04:21:03.604Z,98.33
2018-12-26T04:23:34.693Z,98.16
2018-12-26T04:26:05.830Z,98.85
2018-12-26T04:28:37.000Z,98.92
2018-12-26T04:31:07.802Z,99.21
2018-12-26T04:33:38.588Z,99.08
2018-12-26T04:36:09.635Z,98.75
2018-12-26T04:38:40.694Z,98.55
2018-12-26T04:41:11.725Z,99.01
2018-12-26T04:43:42.600Z,98.93
2018-12-26T04:46:13.686Z,99.05
2018-12-26T04:48:44.736Z,98.65
2018-12-26T04:51:15.738Z,98.63
2018-12-26T04:53:47.097Z,99.11
2018-12-26T04:56:18.414Z,99.17
2018-12-26T04:58:49.483Z,98.90
2018-12-26T05:01:20.826Z,98.76
2018-12-26T05:03:51.918Z,98.59
2018-12-26T05:06:22.991Z,98.24
2018-12-26T05:08:54.297Z,97.79
2018-12-26T05:11:25.298Z,98.11
2018-12-26T05:13:56.459Z,98.61
2018-12-26T05:16:27.534Z,98.55
2018-12-26T05:18:58.705Z,98.53
2018-12-26T05:21:31.027Z,98.31
2018-12-26T05:24:05.345Z,98.53
2018-12-26T05:26:36.460Z,98.70
2018-12-26T05:29:07.500Z,98.52
2018-12-26T05:31:38.284Z,98.42
2018-12-26T05:34:09.723Z,98.31
2018-12-26T05:36:40.811Z,97.97
2018-12-26T05:39:11.856Z,98.22
2018-12-26T05:41:42.649Z,97.92
2018-12-26T05:44:13.680Z,98.05
2018-12-26T05:46:44.487Z,98.39
2018-12-26T05:49:16.050Z,98.21
2018-12-26T05:51:47.423Z,98.15
2018-12-26T05:54:18.498Z,98.12
2018-12-26T05:56:49.519Z,98.07
2018-12-26T05:59:21.152Z,97.62
2018-12-26T06:01:52.420Z,97.78
2018-12-26T06:04:23.799Z,97.70
2018-12-26T06:06:55.058Z,97.29
2018-12-26T06:09:26.409Z,97.46
2018-12-26T06:11:57.735Z,97.74
2018-12-26T06:14:28.755Z,96.95
2018-12-26T06:16:59.835Z,97.25
2018-12-26T06:19:31.150Z,97.29
2018-12-26T06:22:02.769Z,96.57
2018-12-26T06:24:33.885Z,96.54
2018-12-26T06:27:05.033Z,96.59
2018-12-26T06:29:36.434Z,96.87
2018-12-26T06:32:07.542Z,96.96
2018-12-26T06:34:39.430Z,97.11
2018-12-26T06:37:10.215Z,97.25
2018-12-26T06:39:41.286Z,97.37
2018-12-26T06:42:12.462Z,97.25
2018-12-26T06:44:43.507Z,97.13
2018-12-26T06:47:15.063Z,97.19
2018-12-26T06:49:46.767Z,96.37
2018-12-26T06:52:17.931Z,96.40
2018-12-26T06:54:49.228Z,96.94
2018-12-26T06:57:20.526Z,96.90
2018-12-26T06:59:51.955Z,96.15
2018-12-26T07:02:23.014Z,96.50
2018-12-26T07:04:54.121Z,96.25
2018-12-26T07:07:25.214Z,96.20
2018-12-26T07:09:56.015Z,96.33
2018-12-26T07:12:27.151Z,96.60
2018-12-26T07:14:58.278Z,96.62
2018-12-26T07:17:29.303Z,95.97
2018-12-26T07:20:00.370Z,95.64
2018-12-26T07:22:31.756Z,95.74
2018-12-26T07:25:03.016Z,95.36
2018-12-26T07:27:34.694Z,95.56
2018-12-26T07:30:05.877Z,95.89
2018-12-26T07:32:36.890Z,95.59
2018-12-26T07:35:08.072Z,96.03
2018-12-26T07:37:39.115Z,96.04
2018-12-26T07:40:10.135Z,95.67
2018-12-26T07:42:40.926Z,96.10
2018-12-26T07:45:11.776Z,96.75
2018-12-26T07:47:43.397Z,95.97
2018-12-26T07:50:14.993Z,95.83
2018-12-26T07:52:46.320Z,95.99
2018-12-26T07:55:17.717Z,96.33
2018-12-26T07:57:49.235Z,96.08
2018-12-26T08:00:20.864Z,96.67
2018-12-26T08:02:51.707Z,97.02
2018-12-26T08:05:23.349Z,96.88
2018-12-26T08:07:54.742Z,96.78
2018-12-26T08:10:25.534Z,97.31
2018-12-26T08:12:56.610Z,97.74
2018-12-26T08:15:27.524Z,97.57
2018-12-26T08:17:58.971Z,97.42
2018-12-26T08:20:30.183Z,97.42
2018-12-26T08:23:01.865Z,97.60
2018-12-26T08:25:33.218Z,97.81
2018-12-26T08:28:04.368Z,96.55
2018-12-26T08:30:35.619Z,96.60
2018-12-26T08:33:06.717Z,96.58
2018-12-26T08:35:38.384Z,96.27
2018-12-26T08:38:09.514Z,96.38
2018-12-26T08:40:40.572Z,96.35
2018-12-26T08:43:11.590Z,96.48
2018-12-26T08:45:42.486Z,96.70
2018-12-26T08:48:13.647Z,97.17
2018-12-26T08:50:44.930Z,97.17
2018-12-26T08:53:16.370Z,96.81
2018-12-26T08:55:47.907Z,95.97
2018-12-26T08:58:19.363Z,96.27
2018-12-26T09:00:50.894Z,96.37
2018-12-26T09:03:21.979Z,96.36
2018-12-26T09:05:53.530Z,96.54
2018-12-26T09:09:01.555Z,95.06
2018-12-26T09:11:52.409Z,95.80
2018-12-26T09:14:23.454Z,95.88
2018-12-26T09:16:54.878Z,95.36
2018-12-26T09:19:25.768Z,95.73
2018-12-26T09:21:56.781Z,95.81
2018-12-26T09:24:28.077Z,95.73
2018-12-26T09:26:59.276Z,96.62
2018-12-26T09:29:30.682Z,96.05
2018-12-26T09:32:01.566Z,96.02
2018-12-26T09:34:32.459Z,95.27
2018-12-26T09:37:03.809Z,94.88
2018-12-26T09:39:34.667Z,95.79
2018-12-26T09:42:06.049Z,95.72
2018-12-26T09:44:37.679Z,95.65
2018-12-26T09:47:09.080Z,95.97
2018-12-26T09:49:40.398Z,95.34
2018-12-26T09:52:11.428Z,95.69
2018-12-26T09:54:42.497Z,94.69
2018-12-26T09:57:13.622Z,95.11
2018-12-26T09:59:44.641Z,94.48
2018-12-26T10:02:15.650Z,95.03
2018-12-26T10:04:47.140Z,95.68
2018-12-26T10:07:18.144Z,94.11
2018-12-26T10:09:49.790Z,94.94
2018-12-26T10:12:21.366Z,97.66
2018-12-26T10:14:52.543Z,94.18
2018-12-26T10:17:23.396Z,93.77
2018-12-26T10:19:54.193Z,93.79
2018-12-26T10:22:25.480Z,94.37
2018-12-26T10:24:56.327Z,94.99
2018-12-26T10:27:27.611Z,93.74
2018-12-26T10:29:58.712Z,94.12
2018-12-26T10:32:29.814Z,94.08
2018-12-26T10:35:00.924Z,93.90
2018-12-26T10:37:32.066Z,94.25
2018-12-26T10:40:03.443Z,93.76
2018-12-26T10:42:34.771Z,94.29
2018-12-26T10:45:06.617Z,94.92
2018-12-26T10:47:37.550Z,95.11
2018-12-26T10:50:10.438Z,94.61
2018-12-26T10:52:41.560Z,94.39
2018-12-26T10:55:12.601Z,93.86
2018-12-26T10:57:43.902Z,93.67
2018-12-26T11:00:15.075Z,94.72
2018-12-26T11:02:46.092Z,95.42
2018-12-26T11:05:16.871Z,95.79
2018-12-26T11:07:48.322Z,94.96
2018-12-26T11:10:19.365Z,95.05
2018-12-26T11:12:50.268Z,95.41
2018-12-26T11:15:23.091Z,95.45
2018-12-26T11:18:29.490Z,95.37
2018-12-26T11:21:19.747Z,95.65
2018-12-26T11:27:27.372Z,95.04
2018-12-26T11:30:00.170Z,94.52
2018-12-26T11:32:44.747Z,95.25
2018-12-26T11:35:52.726Z,95.50
2018-12-26T11:41:15.102Z,96.17
2018-12-26T11:43:47.789Z,95.76
2018-12-26T11:49:32.652Z,96.16
2018-12-26T11:52:07.141Z,96.19
2018-12-26T11:54:38.221Z,96.11
2018-12-26T11:57:09.011Z,95.96
2018-12-26T11:59:40.087Z,96.30
2018-12-26T12:02:11.439Z,96.11
2018-12-26T12:04:42.461Z,96.29
2018-12-26T12:10:34.253Z,95.62
2018-12-26T12:16:24.717Z,94.92
2018-12-26T12:22:28.858Z,95.03
2018-12-26T12:43:20.953Z,94.95
2018-12-26T12:45:53.640Z,94.91
2018-12-26T13:01:13.967Z,95.42
2018-12-26T13:06:45.307Z,95.09
2018-12-26T13:09:16.107Z,95.11
2018-12-26T13:15:43.107Z,94.67
2018-12-26T13:18:35.714Z,94.87
2018-12-26T13:21:06.502Z,94.70
2018-12-26T13:23:37.510Z,94.97
2018-12-26T13:26:08.535Z,95.03
2018-12-26T13:28:39.686Z,94.74
2018-12-26T13:31:10.960Z,94.62
2018-12-26T13:33:41.939Z,94.60
2018-12-26T13:36:13.305Z,94.88
2018-12-26T13:38:44.366Z,94.51
2018-12-26T13:41:15.230Z,94.20
2018-12-26T13:43:46.345Z,94.78
2018-12-26T13:46:17.662Z,94.70
2018-12-26T13:48:48.846Z,95.29
2018-12-26T13:51:20.309Z,95.32
2018-12-26T13:53:51.332Z,95.32
2018-12-26T13:56:22.704Z,95.63
2018-12-26T13:58:53.483Z,95.70
2018-12-26T14:01:24.646Z,95.87
2018-12-26T14:03:55.661Z,95.52
2018-12-26T14:06:26.737Z,95.51
2018-12-26T14:08:57.782Z,95.64
2018-12-26T14:11:29.612Z,95.56
2018-12-26T14:14:00.934Z,95.48
2018-12-26T14:16:32.106Z,95.27
2018-12-26T14:19:03.321Z,95.46
2018-12-26T14:21:34.346Z,95.25
2018-12-26T14:24:05.486Z,95.05
2018-12-26T14:26:36.902Z,95.23
2018-12-26T14:29:08.032Z,95.72
2018-12-26T14:31:39.522Z,96.14
2018-12-26T14:34:10.849Z,95.69
2018-12-26T14:36:42.287Z,95.01
2018-12-26T14:39:13.057Z,95.81
2018-12-26T14:41:44.672Z,95.83
2018-12-26T14:44:15.764Z,96.10
2018-12-26T14:46:47.201Z,96.14
2018-12-26T14:49:18.148Z,96.07
2018-12-26T14:51:50.431Z,96.12
2018-12-26T14:54:21.692Z,95.86
2018-12-26T14:56:52.819Z,96.05
2018-12-26T14:59:24.197Z,96.01
2018-12-26T15:01:55.762Z,96.20
2018-12-26T15:04:27.056Z,96.67
2018-12-26T15:06:58.397Z,96.46
2018-12-26T15:09:29.536Z,96.30
2018-12-26T15:12:00.332Z,95.88
2018-12-26T15:14:31.595Z,96.19
2018-12-26T15:17:02.729Z,96.47
2018-12-26T15:19:34.085Z,96.34
2018-12-26T15:22:05.393Z,96.75
2018-12-26T15:24:36.718Z,97.25
2018-12-26T15:27:08.491Z,97.33
2018-12-26T15:29:39.788Z,97.19
2018-12-26T15:32:11.922Z,97.25
2018-12-26T15:34:43.901Z,97.92
2018-12-26T15:37:15.506Z,97.55
2018-12-26T15:39:46.919Z,97.50
2018-12-26T15:42:18.231Z,97.82
2018-12-26T15:44:49.086Z,98.00
2018-12-26T15:47:20.646Z,97.88
2018-12-26T15:49:51.925Z,98.14
2018-12-26T15:52:23.892Z,97.72
2018-12-26T15:54:54.671Z,97.20
2018-12-26T15:57:25.699Z,97.52
2018-12-26T15:59:57.277Z,97.64
2018-12-26T16:02:28.678Z,97.56
2018-12-26T16:04:59.533Z,97.10
2018-12-26T16:07:31.000Z,97.05
2018-12-26T16:10:02.065Z,97.21
2018-12-26T16:12:33.539Z,97.41
2018-12-26T16:15:05.328Z,97.23
2018-12-26T16:17:36.702Z,96.93
2018-12-26T16:20:09.864Z,96.50
2018-12-26T16:25:54.712Z,96.86
2018-12-26T16:28:26.068Z,97.24
2018-12-26T16:31:20.493Z,97.75
2018-12-26T16:34:03.490Z,98.07
2018-12-26T16:39:36.834Z,97.19
2018-12-26T16:42:27.803Z,98.04
2018-12-26T16:44:59.347Z,98.07
2018-12-26T16:47:30.941Z,98.28
2018-12-26T16:50:02.082Z,98.01
2018-12-26T16:52:33.631Z,98.11
2018-12-26T16:55:05.472Z,98.28
2018-12-26T16:57:36.789Z,97.67
2018-12-26T17:00:08.319Z,97.40
2018-12-26T17:02:39.490Z,97.79
2018-12-26T17:08:24.641Z,97.97
2018-12-26T17:10:57.787Z,98.06
2018-12-26T17:13:28.862Z,98.10
2018-12-26T17:16:00.164Z,98.08
2018-12-26T17:18:31.030Z,98.11
2018-12-26T17:21:02.133Z,97.97
2018-12-26T17:23:33.393Z,97.95
2018-12-26T17:26:04.406Z,97.80
2018-12-26T17:28:35.659Z,97.92
2018-12-26T17:31:49.669Z,98.15
2018-12-26T17:34:20.853Z,98.08
2018-12-26T17:40:06.519Z,97.90
2018-12-26T17:42:58.437Z,98.01
2018-12-26T17:45:29.820Z,98.06
2018-12-26T17:48:02.575Z,98.02
2018-12-26T17:50:54.508Z,98.14
2018-12-26T17:54:19.972Z,98.08
2018-12-26T18:04:07.302Z,98.46
2018-12-26T18:06:58.488Z,98.41
2018-12-26T18:09:29.655Z,98.34
2018-12-26T18:19:20.298Z,98.73
2018-12-26T18:21:51.362Z,98.42
2018-12-26T18:24:22.804Z,98.40
2018-12-26T18:27:13.208Z,98.58
2018-12-26T18:33:33.770Z,98.75
2018-12-26T18:36:59.971Z,98.73
2018-12-26T18:39:33.048Z,99.27
2018-12-26T18:42:04.729Z,99.40
2018-12-26T18:44:35.538Z,99.38
2018-12-26T18:47:06.666Z,99.32
2018-12-26T18:49:37.784Z,99.26
2018-12-26T18:52:08.583Z,99.27
2018-12-26T18:54:39.974Z,99.15
2018-12-26T18:57:11.030Z,98.91
2018-12-26T18:59:42.935Z,98.78
2018-12-26T19:02:14.337Z,98.33
2018-12-26T19:04:46.386Z,97.93
2018-12-26T19:07:17.685Z,97.80
2018-12-26T19:09:48.910Z,98.60
2018-12-26T19:12:20.306Z,98.85
2018-12-26T19:14:51.346Z,98.30
2018-12-26T19:17:22.603Z,98.30
2018-12-26T19:19:53.789Z,98.29
2018-12-26T19:22:24.821Z,98.07
2018-12-26T19:24:55.979Z,98.28
2018-12-26T19:27:27.098Z,98.38
2018-12-26T19:29:59.495Z,97.64
2018-12-26T19:32:31.727Z,97.77
2018-12-26T19:35:03.482Z,97.78
2018-12-26T19:37:34.794Z,98.18
2018-12-26T19:43:54.429Z,98.01
2018-12-26T19:46:37.394Z,97.61
2018-12-26T19:49:28.064Z,97.14
2018-12-26T19:51:58.851Z,97.09
2018-12-26T19:54:29.940Z,97.12
2018-12-26T19:57:01.455Z,97.30
2018-12-26T19:59:32.727Z,97.13
2018-12-26T20:02:03.767Z,96.99
2018-12-26T20:04:35.335Z,96.89
2018-12-26T20:07:06.591Z,96.88
2018-12-26T20:09:37.724Z,96.91
2018-12-26T20:12:10.211Z,97.30
2018-12-26T20:14:41.546Z,96.45
2018-12-26T20:17:12.999Z,96.59
2018-12-26T20:19:43.807Z,97.03
2018-12-26T20:22:14.750Z,97.24
2018-12-26T20:24:46.082Z,97.16
2018-12-26T20:27:17.482Z,97.14
2018-12-26T20:29:49.207Z,96.91
2018-12-26T20:32:20.711Z,96.83
2018-12-26T20:34:51.827Z,97.35
2018-12-26T20:37:23.245Z,97.15
2018-12-26T20:39:54.679Z,97.22
2018-12-26T20:42:26.259Z,96.70
2018-12-26T20:44:57.390Z,97.00
2018-12-26T20:47:29.904Z,96.59
2018-12-26T20:50:01.386Z,95.97
2018-12-26T20:52:32.558Z,95.83
2018-12-26T20:55:03.623Z,96.35
2018-12-26T20:57:38.263Z,96.68
2018-12-26T21:00:10.730Z,96.84
2018-12-26T21:02:42.020Z,96.27
2018-12-26T21:05:12.881Z,96.70
2018-12-26T21:07:44.870Z,96.76
2018-12-26T21:10:16.038Z,96.93
2018-12-26T21:12:47.156Z,96.85
2018-12-26T21:15:18.213Z,96.92
2018-12-26T21:17:49.272Z,96.92
2018-12-26T21:20:41.707Z,97.18
2018-12-26T21:23:12.747Z,97.17
2018-12-26T21:25:43.974Z,97.41
2018-12-26T21:28:15.563Z,97.57
2018-12-26T21:30:46.482Z,97.63
2018-12-26T21:33:17.993Z,97.36
2018-12-26T21:35:49.183Z,96.75
2018-12-26T21:38:20.149Z,97.08
2018-12-26T21:40:51.640Z,97.29
2018-12-26T21:43:22.961Z,96.95
2018-12-26T21:45:54.217Z,97.28
2018-12-26T21:48:25.286Z,97.41
2018-12-26T21:50:56.467Z,97.68
2018-12-26T21:53:27.244Z,97.91
2018-12-26T21:55:58.312Z,97.99
2018-12-26T21:58:29.833Z,97.93
2018-12-26T22:01:00.954Z,98.00
2018-12-26T22:03:32.334Z,97.98
2018-12-26T22:06:03.423Z,98.70
2018-12-26T22:08:34.763Z,98.85
2018-12-26T22:11:05.601Z,98.38
2018-12-26T22:13:36.773Z,97.99
2018-12-26T22:16:08.403Z,98.29
2018-12-26T22:18:39.954Z,98.98
2018-12-26T22:21:11.428Z,98.93
2018-12-26T22:23:42.444Z,98.87
2018-12-26T22:26:13.616Z,98.64
2018-12-26T22:28:45.144Z,98.51
2018-12-26T22:31:16.502Z,98.45
2018-12-26T22:33:47.937Z,98.75
2018-12-26T22:36:19.256Z,98.86
2018-12-26T22:38:50.527Z,98.52
2018-12-26T22:41:22.683Z,98.58
2018-12-26T22:43:54.276Z,98.67
2018-12-26T22:46:25.426Z,98.02
2018-12-26T22:48:56.567Z,97.38
2018-12-26T22:51:27.968Z,97.52
2018-12-26T22:53:59.306Z,98.40
2018-12-26T22:56:30.683Z,98.55
2018-12-26T22:59:02.456Z,98.67
2018-12-26T23:01:33.911Z,98.45
2018-12-26T23:04:04.992Z,98.60
2018-12-26T23:06:36.131Z,98.87
2018-12-26T23:09:07.915Z,98.49
2018-12-26T23:11:39.374Z,98.44
2018-12-26T23:14:10.701Z,98.51
2018-12-26T23:16:41.888Z,98.41
2018-12-26T23:19:12.924Z,97.83
2018-12-26T23:21:44.014Z,97.83
2018-12-26T23:24:15.271Z,98.04
2018-12-26T23:26:46.351Z,97.63
2018-12-26T23:29:17.951Z,98.00
2018-12-26T23:31:49.287Z,98.19
2018-12-26T23:34:21.546Z,97.21
2018-12-26T23:36:52.920Z,97.21
2018-12-26T23:39:23.998Z,98.06
2018-12-26T23:41:55.220Z,98.40
2018-12-26T23:44:26.500Z,98.46
2018-12-26T23:46:57.872Z,98.56
2018-12-26T23:49:28.727Z,98.79
2018-12-26T23:52:00.014Z,98.85
2018-12-26T23:54:30.869Z,98.55
2018-12-26T23:57:01.837Z,98.72
2018-12-26T23:59:33.342Z,98.63
